METAR AND TAF INFORMATION
METAR FOR EGMC
ADDS - METARS form results

(2236 UTC 04 August 2021)
Data provider http://aviationweather.gov/metar/data/
 
METAR text: EGMC 042220Z 18007KT CAVOK 16/12 Q1012
Conditions at: EGMC (SOUTHEND-ON-SEA , GB) observed 2220 UTC 04 August 2021
Temperature: 16.0°C (61°F)
Dewpoint: 12.0°C (54°F) [RH = 77%]
Pressure (altimeter): 29.88 inches Hg (1012.0 mb)
Winds: from the S (180 degrees) at 8 MPH (7 knots; 3.6 m/s)
Visibility: 6 or more miles (10+ km)
Ceiling: ceiling and visibility are OK
Clouds: unknown
Weather: no significant weather observed at this time

METAR text: EGMC 042150Z 18005KT CAVOK 16/13 Q1012
Conditions at: EGMC (SOUTHEND-ON-SEA , GB) observed 2150 UTC 04 August 2021
Temperature: 16.0°C (61°F)
Dewpoint: 13.0°C (55°F) [RH = 82%]
Pressure (altimeter): 29.88 inches Hg (1012.0 mb)
Winds: from the S (180 degrees) at 6 MPH (5 knots; 2.6 m/s)
Visibility: 6 or more miles (10+ km)
Ceiling: ceiling and visibility are OK
Clouds: unknown
Weather: no significant weather observed at this time

Forecast for: EGMC (SOUTHEND-ON-SEA , GB)
Text: TAF EGMC 041958Z 0421/0506 14005KT 9999 FEW030
Forecast period: 2100 UTC 04 August 2021 to 0600 UTC 05 August 2021
Forecast type: FROM: standard forecast or significant change
Winds: from the SE (140 degrees) at 6 MPH (5 knots; 2.6 m/s)
Visibility: 6 or more miles (10+ km)
Ceiling: at least 12,000 feet AGL
Clouds: few clouds at 3000 feet AGL
Weather: no significant weather forecast for this period

 AIRPORT MAP

 RUNWAY INFORMATION
Runway 06 Runway length 5023 ft Runway width 121 ft
Runway elevation 49 ft Runway displaced threshold 571 ft Runway heading 54
Runway 24 Runway length 5023 ft Runway width 121 ft
Runway elevation 37 ft Runway displaced threshold 479 ft Runway heading 234

 AIRPORT FREQUENCIES
Type APP Name APP Frequency 130.775 MHZ
Type ATIS Name ATIS Frequency 121.8 MHZ
Type RDR Name RDR Frequency 130.775 MHZ
Type TWR Name TWR Frequency 127.725 MHZ

 AIRPORT NEAR NAVIGATION AIDS





Powered by Virtual Airlines Manager

Maps by Rafael Santos